Golden, CO (80401)

12:13 AM MDT on August 31, 2016 (GMT -0600)
Washington Ave South | | Change Station

Elev 5764 ft 39.75 °N, 105.22 °W | Updated 59 seconds ago

Clear
Clear
61.2 °F
Feels Like 61.2 °F
N
0.4
Wind Variable Wind from WSW
Gusts 2.5 mph

Today
High -- | Low -- °F
--% Chance of Precip.
Yesterday
High -- | Low -- °F
Precip. -- in
Pressure 30.33 in
Visibility 10.0 miles
Clouds Clear
Dew Point 52 °F
Humidity 72%
Rainfall 0.00 in
Snow Depth Not available.
6:28 AM 7:32 PM
Waning Crescent, 1% visible
METAR KBJC 310555Z AUTO 29006KT 10SM CLR 16/10 A3033 RMK AO2
Pressure 30.33 in
Visibility 10.0 miles
Clouds Clear
Dew Point 52 °F
Humidity 72%
Rainfall 0.00 in
Snow Depth Not available.
6:28 AM 7:32 PM
Waning Crescent, 1% visible
METAR KBJC 310555Z AUTO 29006KT 10SM CLR 16/10 A3033 RMK AO2

10-Day Weather Forecast

Almanac

Astronomy

Aug. 31, 2016 Rise Set
Actual Time
Civil Twilight
Nautical Twilight
Astronomical Twilight
Moon
Length of Visible Light
Length of Day
Tomorrow will be .
, % of the Moon is Illuminated

Today's Extremes

State Highs State Lows

Community

WunderPhotos

Upload Photos

1,936,040 photos uploaded!

WunderBlog® & News

Nearby

Air Quality

  Air Quality AQ Index Pollutant
Not available.

Snow Depth

Station Depth Elevation

Earthquake Activity

City Distance Mag. Time & Date
Minimum magnitude displayed is 2.5.

Coastal Water Temperatures

Place Temperature

Stations

Nearby Weather Stations

Station Location Temp. Windchill Dew Point Humidity Wind Precip. Elev Updated Type
                   

Watches & Warnings

There are currently no watches in effect.